createdAt,value
2019-01-18T00:01:10.326Z,0.93
2019-01-18T00:04:17.033Z,0.90
2019-01-18T00:07:24.983Z,0.73
2019-01-18T00:10:31.620Z,0.80
2019-01-18T00:13:37.854Z,1.17
2019-01-18T00:16:44.751Z,0.60
2019-01-18T00:19:51.178Z,0.90
2019-01-18T00:22:57.816Z,0.77
2019-01-18T00:26:04.509Z,0.90
2019-01-18T00:29:11.005Z,0.80
2019-01-18T00:32:17.662Z,1.20
2019-01-18T00:35:24.353Z,1.00
2019-01-18T00:38:31.964Z,1.20
2019-01-18T00:41:38.671Z,1.10
2019-01-18T00:44:44.862Z,1.20
2019-01-18T00:47:51.261Z,0.80
2019-01-18T00:50:57.589Z,0.70
2019-01-18T00:54:04.294Z,0.90
2019-01-18T00:57:11.032Z,0.70
2019-01-18T01:00:20.533Z,0.93
2019-01-18T01:03:27.310Z,0.80
2019-01-18T01:06:36.818Z,0.73
2019-01-18T01:09:43.324Z,1.00
2019-01-18T01:12:49.931Z,1.10
2019-01-18T01:15:57.030Z,0.70
2019-01-18T01:19:03.222Z,0.93
2019-01-18T01:22:10.024Z,0.90
2019-01-18T01:25:16.626Z,1.07
2019-01-18T01:28:24.077Z,0.90
2019-01-18T01:31:31.035Z,1.00
2019-01-18T01:34:37.323Z,1.17
2019-01-18T01:37:43.921Z,0.97
2019-01-18T01:40:50.489Z,0.80
2019-01-18T01:43:57.099Z,1.00
2019-01-18T01:47:03.531Z,1.10
2019-01-18T01:50:12.855Z,0.90
2019-01-18T01:53:19.699Z,0.80
2019-01-18T01:56:25.775Z,1.60
2019-01-18T01:59:32.338Z,1.00
2019-01-18T02:02:38.961Z,1.20
2019-01-18T02:05:45.499Z,0.83
2019-01-18T02:08:52.085Z,1.17
2019-01-18T02:11:58.616Z,0.93
2019-01-18T02:15:06.477Z,0.90
2019-01-18T02:18:13.183Z,0.80
2019-01-18T02:21:20.201Z,1.00
2019-01-18T02:24:27.056Z,1.00
2019-01-18T02:27:33.841Z,0.80
2019-01-18T02:30:40.483Z,0.80
2019-01-18T02:33:48.108Z,0.70
2019-01-18T02:36:54.882Z,0.63
2019-01-18T02:40:01.869Z,0.87
2019-01-18T02:43:08.546Z,0.50
2019-01-18T02:46:15.622Z,0.67
2019-01-18T02:49:22.146Z,0.50
2019-01-18T02:52:28.665Z,0.50
2019-01-18T02:55:35.748Z,0.37
2019-01-18T02:58:42.330Z,0.53
2019-01-18T03:01:49.033Z,0.60
2019-01-18T03:04:55.917Z,0.73
2019-01-18T03:08:02.711Z,0.80
2019-01-18T03:11:09.241Z,0.60
2019-01-18T03:14:16.394Z,0.77
2019-01-18T03:17:23.757Z,1.00
2019-01-18T03:20:30.262Z,0.97
2019-01-18T03:23:36.961Z,0.77
2019-01-18T03:26:43.526Z,0.93
2019-01-18T03:29:49.851Z,0.60
2019-01-18T03:32:56.630Z,0.70
2019-01-18T03:36:03.267Z,0.90
2019-01-18T03:39:10.925Z,0.83
2019-01-18T03:42:17.450Z,0.80
2019-01-18T03:45:24.337Z,1.10
2019-01-18T03:48:31.167Z,0.93
2019-01-18T03:51:39.880Z,1.53
2019-01-18T03:54:46.664Z,1.40
2019-01-18T03:57:54.055Z,0.80
2019-01-18T04:01:00.925Z,1.13
2019-01-18T04:04:07.469Z,1.27
2019-01-18T04:07:15.284Z,0.97
2019-01-18T04:10:22.161Z,0.87
2019-01-18T04:13:29.860Z,0.97
2019-01-18T04:16:38.464Z,0.97
2019-01-18T04:19:44.846Z,0.93
2019-01-18T04:22:51.440Z,0.80
2019-01-18T04:25:58.508Z,0.67
2019-01-18T04:29:05.193Z,0.70
2019-01-18T04:32:11.932Z,0.90
2019-01-18T04:35:18.326Z,0.77
2019-01-18T04:38:25.025Z,0.90
2019-01-18T04:41:31.424Z,0.80
2019-01-18T04:44:37.745Z,0.90
2019-01-18T04:47:44.245Z,1.03
2019-01-18T04:50:50.870Z,0.67
2019-01-18T04:53:57.376Z,0.73
2019-01-18T04:57:04.276Z,0.90
2019-01-18T05:00:19.826Z,0.67
2019-01-18T05:03:26.332Z,0.77
2019-01-18T05:06:33.095Z,0.60
2019-01-18T05:09:40.043Z,0.90
2019-01-18T05:12:47.574Z,0.70
2019-01-18T05:15:54.052Z,0.87
2019-01-18T05:19:00.734Z,1.10
2019-01-18T05:22:07.534Z,1.10
2019-01-18T05:25:14.127Z,0.93
2019-01-18T05:28:20.600Z,0.80
2019-01-18T05:31:27.149Z,0.60
2019-01-18T05:34:34.180Z,0.50
2019-01-18T05:37:41.050Z,0.43
2019-01-18T05:40:48.216Z,0.40
2019-01-18T05:43:54.715Z,0.93
2019-01-18T05:47:01.892Z,0.47
2019-01-18T05:50:12.885Z,0.50
2019-01-18T05:53:19.438Z,0.40
2019-01-18T05:56:26.488Z,0.40
2019-01-18T05:59:33.359Z,0.40
2019-01-18T06:02:40.046Z,0.40
2019-01-18T06:05:46.870Z,0.60
2019-01-18T06:08:53.202Z,0.60
2019-01-18T06:12:00.133Z,0.50
2019-01-18T06:15:07.408Z,0.30
2019-01-18T06:18:14.602Z,0.50
2019-01-18T06:21:21.576Z,0.77
2019-01-18T06:24:28.436Z,0.63
2019-01-18T06:27:35.264Z,0.40
2019-01-18T06:30:41.834Z,0.30
2019-01-18T06:33:48.354Z,0.30
2019-01-18T06:36:54.918Z,0.30
2019-01-18T06:40:01.512Z,0.30
2019-01-18T06:43:08.507Z,0.40
2019-01-18T06:46:15.748Z,0.40
2019-01-18T06:49:22.398Z,0.30
2019-01-18T06:52:29.354Z,0.47
2019-01-18T06:55:35.991Z,0.40
2019-01-18T06:58:42.747Z,0.40
2019-01-18T07:01:49.951Z,0.40
2019-01-18T07:04:56.517Z,0.87
2019-01-18T07:08:03.689Z,0.30
2019-01-18T07:11:10.376Z,0.47
2019-01-18T07:14:17.393Z,0.30
2019-01-18T07:17:24.981Z,0.53
2019-01-18T07:20:32.049Z,0.40
2019-01-18T07:23:38.478Z,0.30
2019-01-18T07:26:45.415Z,0.50
2019-01-18T07:29:51.894Z,0.30
2019-01-18T07:32:59.032Z,0.40
2019-01-18T07:36:05.878Z,0.50
2019-01-18T07:39:12.535Z,0.40
2019-01-18T07:42:18.934Z,0.30
2019-01-18T07:45:27.227Z,0.63
2019-01-18T07:48:33.609Z,0.50
2019-01-18T07:51:40.246Z,0.90
2019-01-18T07:54:46.716Z,0.73
2019-01-18T07:57:53.627Z,0.97
2019-01-18T08:01:00.392Z,1.03
2019-01-18T08:04:06.818Z,1.20
2019-01-18T08:07:13.706Z,1.23
2019-01-18T08:10:21.106Z,1.10
2019-01-18T08:13:28.117Z,1.10
2019-01-18T08:16:35.670Z,1.30
2019-01-18T08:19:42.828Z,1.50
2019-01-18T08:22:51.182Z,1.10
2019-01-18T08:25:57.940Z,1.40
2019-01-18T08:29:04.958Z,1.10
2019-01-18T08:32:13.238Z,1.30
2019-01-18T08:35:20.849Z,1.17
2019-01-18T08:38:27.626Z,0.90
2019-01-18T08:41:34.388Z,0.90
2019-01-18T08:44:40.837Z,1.00
2019-01-18T08:51:26.683Z,1.80
2019-01-18T08:54:33.570Z,1.87
2019-01-18T08:57:40.174Z,2.53
2019-01-18T09:00:47.358Z,2.37
2019-01-18T09:03:53.967Z,2.27
2019-01-18T09:07:00.357Z,2.73
2019-01-18T09:10:08.943Z,2.83
2019-01-18T09:13:18.389Z,2.47
2019-01-18T09:16:25.131Z,2.70
2019-01-18T09:19:31.706Z,2.40
2019-01-18T09:22:38.403Z,5.97
2019-01-18T09:25:45.199Z,6.13
2019-01-18T09:28:54.973Z,9.60
2019-01-18T09:32:02.185Z,10.90
2019-01-18T09:35:10.970Z,3.03
2019-01-18T09:38:18.735Z,4.53
2019-01-18T09:41:25.515Z,4.30
2019-01-18T09:44:32.040Z,1.73
2019-01-18T09:47:38.406Z,1.33
2019-01-18T09:50:45.031Z,1.10
2019-01-18T09:53:52.119Z,0.63
2019-01-18T09:56:58.690Z,0.60
2019-01-18T10:00:08.998Z,0.70
2019-01-18T10:03:15.329Z,0.57
2019-01-18T10:06:22.179Z,0.60
2019-01-18T10:09:29.438Z,0.80
2019-01-18T10:12:38.733Z,0.80
2019-01-18T10:15:47.148Z,0.67
2019-01-18T10:18:55.918Z,0.87
2019-01-18T10:22:02.659Z,0.53
2019-01-18T10:25:10.790Z,0.60
2019-01-18T10:28:17.332Z,0.40
2019-01-18T10:31:24.161Z,0.60
2019-01-18T10:34:30.814Z,0.33
2019-01-18T10:37:38.198Z,0.40
2019-01-18T10:40:44.939Z,0.73
2019-01-18T10:43:51.289Z,0.57
2019-01-18T10:46:57.985Z,0.53
2019-01-18T10:50:06.312Z,0.57
2019-01-18T10:53:12.903Z,0.30
2019-01-18T10:56:20.417Z,0.70
2019-01-18T10:59:26.848Z,0.43
2019-01-18T11:02:33.478Z,0.47
2019-01-18T11:05:40.176Z,0.30
2019-01-18T11:08:47.086Z,0.73
2019-01-18T11:11:54.061Z,0.73
2019-01-18T11:15:00.782Z,0.43
2019-01-18T11:18:07.558Z,0.43
2019-01-18T11:21:17.399Z,0.43
2019-01-18T11:24:23.997Z,0.47
2019-01-18T11:27:30.408Z,0.93
2019-01-18T11:30:37.347Z,0.40
2019-01-18T11:33:43.891Z,0.43
2019-01-18T11:36:50.779Z,0.27
2019-01-18T11:39:58.622Z,0.83
2019-01-18T11:43:06.093Z,0.60
2019-01-18T11:46:12.674Z,0.47
2019-01-18T11:49:19.367Z,0.30
2019-01-18T11:52:26.401Z,0.50
2019-01-18T11:55:33.276Z,0.33
2019-01-18T11:58:39.963Z,0.47
2019-01-18T12:01:47.666Z,0.40
2019-01-18T12:04:54.415Z,0.60
2019-01-18T12:08:01.804Z,0.70
2019-01-18T12:11:11.757Z,0.70
2019-01-18T12:14:36.913Z,2.03
2019-01-18T12:17:44.612Z,0.83
2019-01-18T12:20:51.682Z,1.17
2019-01-18T12:23:57.919Z,0.90
2019-01-18T12:27:04.737Z,0.87
2019-01-18T12:30:18.449Z,0.60
2019-01-18T12:33:25.503Z,4.03
2019-01-18T12:36:32.534Z,2.40
2019-01-18T12:39:40.125Z,1.60
2019-01-18T12:42:47.000Z,0.93
2019-01-18T12:45:54.313Z,12.30
2019-01-18T12:49:01.655Z,6.23
2019-01-18T12:52:08.330Z,2.33
2019-01-18T12:55:15.261Z,7.30
2019-01-18T12:58:21.868Z,1.03
2019-01-18T13:01:29.056Z,0.50
2019-01-18T13:04:35.975Z,0.60
2019-01-18T13:07:42.937Z,0.70
2019-01-18T13:10:53.710Z,0.33
2019-01-18T13:14:00.541Z,0.40
2019-01-18T13:17:08.225Z,0.47
2019-01-18T13:20:16.260Z,1.00
2019-01-18T13:23:23.761Z,1.07
2019-01-18T13:26:31.420Z,0.90
2019-01-18T13:29:38.683Z,0.70
2019-01-18T13:32:45.662Z,0.40
2019-01-18T13:35:53.924Z,0.50
2019-01-18T13:39:00.704Z,0.63
2019-01-18T13:42:10.275Z,0.47
2019-01-18T13:45:17.596Z,0.50
2019-01-18T13:48:24.530Z,0.50
2019-01-18T13:51:31.273Z,0.60
2019-01-18T13:54:38.161Z,0.90
2019-01-18T13:57:46.646Z,0.40
2019-01-18T14:00:53.370Z,1.70
2019-01-18T14:04:00.399Z,5.17
2019-01-18T14:07:07.874Z,2.30
2019-01-18T14:10:23.196Z,0.40
2019-01-18T14:13:30.370Z,1.00
2019-01-18T14:16:38.652Z,4.87
2019-01-18T14:19:45.532Z,3.87
2019-01-18T14:22:53.065Z,9.97
2019-01-18T14:26:04.631Z,13.10
2019-01-18T14:29:11.912Z,12.47
2019-01-18T14:32:18.963Z,2.83
2019-01-18T14:35:26.238Z,1.63
2019-01-18T14:38:32.977Z,0.90
2019-01-18T14:41:39.838Z,8.67
2019-01-18T14:44:46.705Z,6.63
2019-01-18T14:47:53.096Z,1.80
2019-01-18T14:50:59.929Z,41.70
2019-01-18T14:54:09.206Z,4.83
2019-01-18T14:57:16.324Z,5.30
2019-01-18T15:00:25.401Z,3.10
2019-01-18T15:03:32.686Z,1.40
2019-01-18T15:06:39.849Z,0.97
2019-01-18T15:09:47.043Z,1.03
2019-01-18T15:12:56.700Z,0.90
2019-01-18T15:16:03.504Z,0.80
2019-01-18T15:19:10.932Z,1.47
2019-01-18T15:22:17.968Z,1.63
2019-01-18T15:25:25.546Z,0.93
2019-01-18T15:28:32.458Z,1.73
2019-01-18T15:31:41.180Z,1.70
2019-01-18T15:34:48.104Z,1.30
2019-01-18T15:37:54.989Z,1.10
2019-01-18T15:41:02.113Z,2.00
2019-01-18T15:44:17.166Z,2.57
2019-01-18T15:47:25.401Z,3.33
2019-01-18T15:50:36.086Z,2.50
2019-01-18T15:53:43.371Z,5.43
2019-01-18T15:56:50.448Z,4.43
2019-01-18T15:59:57.512Z,2.40
2019-01-18T16:03:08.051Z,9.30
2019-01-18T16:06:15.339Z,9.23
2019-01-18T16:09:22.406Z,6.57
2019-01-18T16:12:29.721Z,5.30
2019-01-18T16:15:52.828Z,4.77
2019-01-18T16:19:00.485Z,4.73
2019-01-18T16:22:07.952Z,8.10
2019-01-18T16:25:18.164Z,5.40
2019-01-18T16:28:25.516Z,4.70
2019-01-18T16:31:32.991Z,4.40
2019-01-18T16:34:39.954Z,4.10
2019-01-18T16:37:47.518Z,3.63
2019-01-18T16:40:55.258Z,4.43
2019-01-18T16:44:02.840Z,4.67
2019-01-18T16:47:10.212Z,4.67
2019-01-18T16:50:17.450Z,4.10
2019-01-18T16:53:25.619Z,4.10
2019-01-18T16:56:32.255Z,3.50
2019-01-18T16:59:39.597Z,4.10
2019-01-18T17:02:46.737Z,4.30
2019-01-18T17:05:55.072Z,5.50
2019-01-18T17:09:02.368Z,13.60
2019-01-18T17:12:11.180Z,20.13
2019-01-18T17:15:18.564Z,16.50
2019-01-18T17:18:25.922Z,11.00
2019-01-18T17:21:32.609Z,14.07
2019-01-18T17:24:39.632Z,8.00
2019-01-18T17:27:46.577Z,6.40
2019-01-18T17:30:53.033Z,15.63
2019-01-18T17:33:59.635Z,8.73
2019-01-18T17:37:16.094Z,6.00
2019-01-18T17:40:37.657Z,6.20
2019-01-18T17:44:26.753Z,8.53
2019-01-18T17:47:51.153Z,3.93
2019-01-18T17:51:41.303Z,3.73
2019-01-18T17:55:02.928Z,4.13
2019-01-18T17:58:34.123Z,7.47
2019-01-18T18:02:30.630Z,4.23
2019-01-18T18:06:10.921Z,2.60
2019-01-18T18:09:45.463Z,3.03
2019-01-18T18:13:45.883Z,4.63
2019-01-18T18:17:30.760Z,3.07
2019-01-18T18:21:14.197Z,7.83
2019-01-18T18:25:13.589Z,5.50
2019-01-18T18:29:23.275Z,4.80
2019-01-18T18:33:00.242Z,2.93
2019-01-18T18:37:03.207Z,4.93
2019-01-18T18:40:28.736Z,4.70
2019-01-18T18:44:07.374Z,8.40
2019-01-18T18:47:40.337Z,8.20
2019-01-18T18:51:46.216Z,9.70
2019-01-18T18:55:36.175Z,14.33
2019-01-18T18:59:16.269Z,19.47
2019-01-18T19:02:52.723Z,13.10
2019-01-18T19:06:58.536Z,9.77
2019-01-18T19:10:48.980Z,7.93
2019-01-18T19:14:20.561Z,6.07
2019-01-18T19:18:23.584Z,8.43
2019-01-18T19:22:06.278Z,7.17
2019-01-18T19:25:56.918Z,4.30
2019-01-18T19:30:15.285Z,5.80
2019-01-18T19:33:54.649Z,8.20
2019-01-18T19:37:34.617Z,13.10
2019-01-18T19:41:14.143Z,11.67
2019-01-18T19:44:43.034Z,7.63
2019-01-18T19:48:11.955Z,8.30
2019-01-18T19:51:36.330Z,6.90
2019-01-18T19:55:12.215Z,5.67
2019-01-18T19:58:58.701Z,4.10
2019-01-18T20:02:42.454Z,4.57
2019-01-18T20:06:46.307Z,3.83
2019-01-18T20:10:10.173Z,4.00
2019-01-18T20:13:52.623Z,3.83
2019-01-18T20:17:28.701Z,2.83
2019-01-18T20:21:01.692Z,3.47
2019-01-18T20:24:55.280Z,4.33
2019-01-18T20:28:46.949Z,4.67
2019-01-18T20:32:32.201Z,4.60
2019-01-18T20:36:27.826Z,4.30
2019-01-18T20:40:10.106Z,4.43
2019-01-18T20:43:35.437Z,4.40
2019-01-18T20:47:43.763Z,6.37
2019-01-18T20:51:29.681Z,6.40
2019-01-18T20:55:03.579Z,6.60
2019-01-18T20:58:54.756Z,5.67
2019-01-18T21:02:27.859Z,6.50
2019-01-18T21:06:03.904Z,5.53
2019-01-18T21:09:50.875Z,6.23
2019-01-18T21:13:18.831Z,6.27
2019-01-18T21:16:57.051Z,5.77
2019-01-18T21:20:58.415Z,5.70
2019-01-18T21:25:01.043Z,6.70
2019-01-18T21:29:05.840Z,6.17
2019-01-18T21:33:11.551Z,5.30
2019-01-18T21:36:50.321Z,5.77
2019-01-18T21:40:49.782Z,5.47
2019-01-18T21:44:32.958Z,4.60
2019-01-18T21:48:00.947Z,5.30
2019-01-18T21:51:31.864Z,6.73
2019-01-18T21:55:18.219Z,5.33
2019-01-18T21:59:29.892Z,5.67
2019-01-18T22:02:52.916Z,7.77
2019-01-18T22:06:08.909Z,8.70
2019-01-18T22:09:33.139Z,9.67
2019-01-18T22:13:15.885Z,12.30
2019-01-18T22:17:12.573Z,10.13
2019-01-18T22:21:00.224Z,6.90
2019-01-18T22:24:41.494Z,5.33
2019-01-18T22:28:19.919Z,9.30
2019-01-18T22:31:51.405Z,6.37
2019-01-18T22:35:07.688Z,7.40
2019-01-18T22:38:44.742Z,6.87
2019-01-18T22:42:19.834Z,7.17
2019-01-18T22:45:59.623Z,5.63
2019-01-18T22:49:47.264Z,7.80
2019-01-18T22:53:30.419Z,6.80
2019-01-18T22:57:21.539Z,4.90
2019-01-18T23:01:23.238Z,5.00
2019-01-18T23:05:10.586Z,5.20
2019-01-18T23:08:57.105Z,4.43
2019-01-18T23:12:41.771Z,4.53
2019-01-18T23:16:11.593Z,5.20
2019-01-18T23:19:45.705Z,4.37
2019-01-18T23:23:23.842Z,5.13
2019-01-18T23:27:03.639Z,5.93
2019-01-18T23:30:32.319Z,5.53
2019-01-18T23:34:09.033Z,4.30
2019-01-18T23:37:35.032Z,4.90
2019-01-18T23:41:28.519Z,4.70
2019-01-18T23:45:18.926Z,4.60
2019-01-18T23:49:18.765Z,4.30
2019-01-18T23:52:59.312Z,4.40
2019-01-18T23:56:39.687Z,6.90
